Terminal Aerodrome Forecast
Issued by NWS

Home | Current Version | Previous Version | Text Only | Print | Product List | Glossary On
Versions: 1 2 3 4 5 6 7 8 9 10 11 12 13 14 15 16
000
FTUS45 KSLC 230539
TAFEVW
TAF
KEVW 230539Z 2306/2406 24007KT P6SM BKN200
     FM231800 23012KT P6SM SCT150 BKN180
     FM240200 24011KT P6SM SCT080 BKN150=

USA.gov is the U.S. government's official web portal to all federal, state and local government web resources and services.